Time,TemperatureF,DewpointF,PressureIn,WindDirection,WindDirectionDegrees,WindSpeedMPH,WindSpeedGustMPH,Humidity,HourlyPrecipIn,Conditions,Clouds,dailyrainin,SoftwareType,DateUTC
2013-06-22 11:02:00,74.0,60.0,-100.00,SW,235,6.0,11.0,63,-99.99,,,-99.99,,2013-06-22 15:02:00,
2013-06-22 11:12:00,74.0,61.0,-100.00,SW,235,5.0,9.0,62,-99.99,,,-99.99,,2013-06-22 15:12:00,
2013-06-22 11:22:00,74.0,61.0,-100.00,SW,235,5.0,9.0,62,-99.99,,,-99.99,,2013-06-22 15:22:00,
2013-06-22 11:34:00,75.0,61.0,-100.00,West,275,2.0,9.0,61,-99.99,,,-99.99,,2013-06-22 15:34:00,
2013-06-22 11:43:00,77.0,61.0,-100.00,SW,215,3.0,9.0,58,-99.99,,,-99.99,,2013-06-22 15:43:00,
2013-06-22 11:53:00,77.0,61.0,-100.00,SW,215,3.0,9.0,58,-99.99,,,-99.99,,2013-06-22 15:53:00,
2013-06-22 12:02:00,77.0,60.0,-100.00,SW,235,2.0,11.0,56,-99.99,,,-99.99,,2013-06-22 16:02:00,
2013-06-22 12:22:00,76.0,58.0,-100.00,West,270,4.0,15.0,54,-99.99,,,-99.99,,2013-06-22 16:22:00,
2013-06-22 12:34:00,77.0,59.0,-100.00,WNW,300,2.0,10.0,53,-99.99,,,-99.99,,2013-06-22 16:34:00,
2013-06-22 12:52:00,77.0,59.0,-100.00,WSW,245,4.0,11.0,53,-99.99,,,-99.99,,2013-06-22 16:52:00,
2013-06-22 13:02:00,79.0,58.0,-100.00,WSW,240,3.0,12.0,50,-99.99,,,-99.99,,2013-06-22 17:02:00,
2013-06-22 13:22:00,79.0,59.0,-100.00,SW,220,6.0,11.0,50,-99.99,,,-99.99,,2013-06-22 17:22:00,
2013-06-22 13:34:00,80.0,59.0,-100.00,WSW,240,5.0,8.0,50,-99.99,,,-99.99,,2013-06-22 17:34:00,
2013-06-22 13:43:00,79.0,59.0,-100.00,SW,230,6.0,11.0,50,-99.99,,,-99.99,,2013-06-22 17:43:00,
2013-06-22 14:02:00,79.0,59.0,-100.00,NW,305,5.0,15.0,50,-99.99,,,-99.99,,2013-06-22 18:02:00,
2013-06-22 14:12:00,80.0,59.0,-100.00,WSW,245,5.0,15.0,50,-99.99,,,-99.99,,2013-06-22 18:12:00,
2013-06-22 14:23:00,80.0,59.0,-100.00,WSW,245,5.0,15.0,50,-99.99,,,-99.99,,2013-06-22 18:23:00,
2013-06-22 14:34:00,80.0,59.0,-100.00,WSW,250,4.0,12.0,49,-99.99,,,-99.99,,2013-06-22 18:34:00,
2013-06-22 14:43:00,80.0,59.0,-100.00,NW,310,2.0,13.0,50,-99.99,,,-99.99,,2013-06-22 18:43:00,
2013-06-22 14:52:00,80.0,59.0,-100.00,SW,235,7.0,12.0,49,-99.99,,,-99.99,,2013-06-22 18:52:00,
2013-06-22 15:01:00,80.0,59.0,-100.00,SW,235,7.0,12.0,49,-99.99,,,-99.99,,2013-06-22 19:01:00,
2013-06-22 15:11:00,81.0,59.0,-100.00,SSW,205,5.0,12.0,48,-99.99,,,-99.99,,2013-06-22 19:11:00,
2013-06-22 15:22:00,81.0,59.0,-100.00,SSW,205,5.0,12.0,48,-99.99,,,-99.99,,2013-06-22 19:22:00,
2013-06-22 15:33:00,82.0,59.0,-100.00,WSW,240,4.0,12.0,47,-99.99,,,-99.99,,2013-06-22 19:33:00,
2013-06-22 15:53:00,82.0,59.0,-100.00,SSE,155,6.0,12.0,45,-99.99,,,-99.99,,2013-06-22 19:53:00,
2013-06-22 16:02:00,82.0,59.0,-100.00,SSE,155,6.0,12.0,45,-99.99,,,-99.99,,2013-06-22 20:02:00,
2013-06-22 16:22:00,82.0,59.0,-100.00,WSW,245,6.0,12.0,45,-99.99,,,-99.99,,2013-06-22 20:22:00,
2013-06-22 16:34:00,82.0,59.0,-100.00,WSW,245,6.0,10.0,45,-99.99,,,-99.99,,2013-06-22 20:34:00,
2013-06-22 17:01:00,81.0,58.0,-100.00,SW,220,5.0,10.0,45,-99.99,,,-99.99,,2013-06-22 21:01:00,
2013-06-22 17:22:00,81.0,59.0,-100.00,West,280,4.0,12.0,47,-99.99,,,-99.99,,2013-06-22 21:22:00,
2013-06-22 17:34:00,81.0,58.0,-100.00,WSW,250,6.0,13.0,47,-99.99,,,-99.99,,2013-06-22 21:34:00,
2013-06-22 17:53:00,81.0,60.0,-100.00,WSW,250,4.0,11.0,49,-99.99,,,-99.99,,2013-06-22 21:53:00,
2013-06-22 18:02:00,81.0,60.0,-100.00,WSW,250,4.0,11.0,49,-99.99,,,-99.99,,2013-06-22 22:02:00,
2013-06-22 18:12:00,81.0,59.0,-100.00,SW,220,8.0,12.0,48,-99.99,,,-99.99,,2013-06-22 22:12:00,
2013-06-22 18:33:00,81.0,60.0,-100.00,SW,220,5.0,11.0,49,-99.99,,,-99.99,,2013-06-22 22:33:00,
2013-06-22 18:52:00,81.0,60.0,-100.00,SW,230,3.0,10.0,48,-99.99,,,-99.99,,2013-06-22 22:52:00,
2013-06-22 19:02:00,81.0,60.0,-100.00,SW,230,3.0,10.0,48,-99.99,,,-99.99,,2013-06-22 23:02:00,
2013-06-22 19:34:00,80.0,59.0,-100.00,SW,225,5.0,8.0,49,-99.99,,,-99.99,,2013-06-22 23:34:00,
2013-06-22 20:01:00,79.0,59.0,-100.00,SW,220,2.0,6.0,51,-99.99,,,-99.99,,2013-06-23 00:01:00,
2013-06-22 20:11:00,78.0,59.0,-100.00,SW,215,2.0,7.0,52,-99.99,,,-99.99,,2013-06-23 00:11:00,
2013-06-22 20:34:00,77.0,59.0,-100.00,SSW,205,2.0,5.0,53,-99.99,,,-99.99,,2013-06-23 00:34:00,
2013-06-22 20:42:00,77.0,59.0,-100.00,SSW,205,2.0,5.0,53,-99.99,,,-99.99,,2013-06-23 00:42:00,
2013-06-22 21:01:00,75.0,59.0,-100.00,South,185,0.0,3.0,58,-99.99,,,-99.99,,2013-06-23 01:01:00,
2013-06-22 21:12:00,74.0,59.0,-100.00,South,175,0.0,4.0,60,-99.99,,,-99.99,,2013-06-23 01:12:00,
2013-06-22 21:32:00,74.0,60.0,-100.00,SSE,160,1.0,5.0,62,-99.99,,,-99.99,,2013-06-23 01:32:00,
2013-06-22 21:52:00,74.0,60.0,-100.00,SSW,210,1.0,5.0,62,-99.99,,,-99.99,,2013-06-23 01:52:00,
2013-06-22 22:01:00,74.0,60.0,-100.00,SSW,210,1.0,5.0,62,-99.99,,,-99.99,,2013-06-23 02:01:00,
2013-06-22 22:11:00,74.0,60.0,-100.00,SSW,205,2.0,5.0,62,-99.99,,,-99.99,,2013-06-23 02:11:00,
2013-06-22 22:31:00,74.0,60.0,-100.00,WSW,250,1.0,6.0,63,-99.99,,,-99.99,,2013-06-23 02:31:00,
2013-06-22 22:52:00,73.0,60.0,-100.00,SSW,205,3.0,10.0,64,-99.99,,,-99.99,,2013-06-23 02:52:00,
2013-06-22 23:01:00,73.0,60.0,-100.00,SSW,205,3.0,10.0,64,-99.99,,,-99.99,,2013-06-23 03:01:00,
2013-06-22 23:11:00,73.0,61.0,-100.00,SW,220,1.0,6.0,65,-99.99,,,-99.99,,2013-06-23 03:11:00,
2013-06-22 23:31:00,72.0,61.0,-100.00,ESE,115,2.0,3.0,68,-99.99,,,-99.99,,2013-06-23 03:31:00,